Observation data for Graham on 12/10/2018      Previous  Date       Current Mesonet Observations  Soil Data  Daily Summary Page  Observations in Plain Language
KGHS 100600Z 30010KT 00/M03 A3037 RMK A01 T00021025  RH  082%=      5-min Rain = 0
KGHS 100605Z 30011KT 00/M03 A3036 RMK A01 T00041025  RH  082%=      5-min Rain = 0
KGHS 100610Z 30011KT 01/M02 A3036 RMK A01 T00061024  RH  081%=      5-min Rain = 0
KGHS 100615Z 30011KT 01/M03 A3036 RMK A01 T00051025  RH  081%=      5-min Rain = 0
KGHS 100620Z 30010KT 01/M03 A3036 RMK A01 T00051026  RH  080%=      5-min Rain = 0
KGHS 100625Z 30010KT 00/M03 A3036 RMK A01 T00021028  RH  081%=      5-min Rain = 0
KGHS 100630Z 31010KT M00/M03 A3036 RMK A01 T10041029  RH  084%=      5-min Rain = 0
KGHS 100635Z 31011KT M00/M03 A3036 RMK A01 T10031026  RH  085%=      5-min Rain = 0
KGHS 100640Z 31010KT 00/03 A3036 RMK A01 T00-00-25  RH  084%=      5-min Rain = 0
KGHS 100645Z 30009KT 00/02 A3036 RMK A01 T00-00-23  RH  085%=      5-min Rain = 0
KGHS 100650Z 30010KT M00/M02 A3036 RMK A01 T10011024  RH  085%=      5-min Rain = 0
KGHS 100655Z 31010KT M00/M02 A3036 RMK A01 T10011024  RH  085%=      5-min Rain = 0
KGHS 100700Z 31011KT 00/02 A3035 RMK A01 T00-00-23  RH  085%=      5-min Rain = 0
KGHS 100705Z 32011KT 00/M02 A3035 RMK A01 T00011022  RH  085%=      5-min Rain = 0
KGHS 100710Z 31012KT 00/M02 A3035 RMK A01 T00011022  RH  086%=      5-min Rain = 0
KGHS 100715Z 31012KT 00/02 A3035 RMK A01 T00000-22  RH  086%=      5-min Rain = 0
KGHS 100720Z 31011KT 00/02 A3035 RMK A01 T00-00-22  RH  086%=      5-min Rain = 0
KGHS 100725Z 31010KT M00/M02 A3035 RMK A01 T10021023  RH  086%=      5-min Rain = 0
KGHS 100730Z 31011KT M00/M02 A3035 RMK A01 T10021023  RH  086%=      5-min Rain = 0
KGHS 100735Z 31012KT 00/02 A3035 RMK A01 T00000-24  RH  084%=      5-min Rain = 0
KGHS 100740Z 31012KT 00/02 A3035 RMK A01 T00000-24  RH  084%=      5-min Rain = 0
KGHS 100745Z 31012G17KT 00/02 A3034 RMK A01 T00-00-24  RH  085%=      5-min Rain = 0
KGHS 100750Z 31011KT 00/M03 A3034 RMK A01 T00011025  RH  083%=      5-min Rain = 0
KGHS 100755Z 31012KT M00/M03 A3035 RMK A01 T10011025  RH  085%=      5-min Rain = 0
KGHS 100800Z 32012KT M00/M02 A3035 RMK A01 T10021024  RH  085%=      5-min Rain = 0
KGHS 100805Z 32011KT M00/M02 A3035 RMK A01 T10011024  RH  085%=      5-min Rain = 0
KGHS 100810Z 31010KT M00/M02 A3035 RMK A01 T10021024  RH  086%=      5-min Rain = 0
KGHS 100815Z 31010KT M00/M02 A3035 RMK A01 T10041024  RH  087%=      5-min Rain = 0
KGHS 100820Z 31010KT M01/M02 A3035 RMK A01 T10051024  RH  088%=      5-min Rain = 0
KGHS 100825Z 31010KT M00/M02 A3035 RMK A01 T10041023  RH  087%=      5-min Rain = 0
KGHS 100830Z 31011KT M00/M02 A3034 RMK A01 T10031022  RH  087%=      5-min Rain = 0
KGHS 100835Z 31011KT M00/M02 A3034 RMK A01 T10041023  RH  088%=      5-min Rain = 0
KGHS 100840Z 31010KT M00/M02 A3034 RMK A01 T10041023  RH  088%=      5-min Rain = 0
KGHS 100845Z 31010KT M01/M02 A3034 RMK A01 T10051023  RH  088%=      5-min Rain = 0
KGHS 100850Z 31010KT M01/M02 A3034 RMK A01 T10051023  RH  088%=      5-min Rain = 0
KGHS 100855Z 31011KT M01/M02 A3034 RMK A01 T10051023  RH  089%=      5-min Rain = 0
KGHS 100900Z 31011KT M00/M02 A3034 RMK A01 T10041022  RH  088%=      5-min Rain = 0
KGHS 100905Z 31012KT M00/M02 A3034 RMK A01 T10041022  RH  088%=      5-min Rain = 0
KGHS 100910Z 31011KT M00/M02 A3033 RMK A01 T10021021  RH  088%=      5-min Rain = 0
KGHS 100915Z 32011KT M00/M02 A3033 RMK A01 T10021022  RH  087%=      5-min Rain = 0
KGHS 100920Z 31012G17KT 00/02 A3033 RMK A01 T00-00-21  RH  087%=      5-min Rain = 0
KGHS 100925Z 31012KT 00/M02 A3033 RMK A01 T00011021  RH  086%=      5-min Rain = 0
KGHS 100930Z 31012KT 00/02 A3033 RMK A01 T00-00-22  RH  086%=      5-min Rain = 0
KGHS 100935Z 31013KT M00/M02 A3033 RMK A01 T10021023  RH  086%=      5-min Rain = 0
KGHS 100940Z 30011KT M00/M02 A3033 RMK A01 T10031023  RH  087%=      5-min Rain = 0
KGHS 100945Z 30011KT M00/M02 A3033 RMK A01 T10031023  RH  087%=      5-min Rain = 0
KGHS 100950Z 31011KT M00/M02 A3033 RMK A01 T10021022  RH  087%=      5-min Rain = 0
KGHS 100955Z 32012KT M00/M02 A3032 RMK A01 T10031023  RH  087%=      5-min Rain = 0
KGHS 101000Z 32012KT M00/M02 A3032 RMK A01 T10031023  RH  087%=      5-min Rain = 0
KGHS 101005Z 32012KT M00/M02 A3032 RMK A01 T10031022  RH  088%=      5-min Rain = 0
KGHS 101010Z 31011KT M00/M02 A3032 RMK A01 T10021020  RH  088%=      5-min Rain = 0
KGHS 101015Z 31011KT M00/M02 A3032 RMK A01 T10021020  RH  088%=      5-min Rain = 0
KGHS 101020Z 31011KT M00/M02 A3032 RMK A01 T10031020  RH  089%=      5-min Rain = 0
KGHS 101025Z 31012KT 00/M02 A3032 RMK A01 T00011016  RH  089%=      5-min Rain = 0
KGHS 101030Z 31011KT 01/M01 A3032 RMK A01 T00061014  RH  087%=      5-min Rain = 0
KGHS 101035Z 31012KT 00/M02 A3032 RMK A01 T00031017  RH  087%=      5-min Rain = 0
KGHS 101040Z 31012KT 00/M02 A3032 RMK A01 T00021017  RH  088%=      5-min Rain = 0
KGHS 101045Z 31012KT 00/M02 A3032 RMK A01 T00011016  RH  089%=      5-min Rain = 0
KGHS 101050Z 32012KT 00/02 A3032 RMK A01 T00-00-16  RH  090%=      5-min Rain = 0
KGHS 101055Z 31012KT 00/02 A3032 RMK A01 T00-00-17  RH  090%=      5-min Rain = 0
KGHS 101100Z 32011KT M00/M02 A3032 RMK A01 T10021018  RH  090%=      5-min Rain = 0
KGHS 101105Z 31011KT M00/M02 A3032 RMK A01 T10041018  RH  091%=      5-min Rain = 0
KGHS 101110Z 31012KT M00/M02 A3032 RMK A01 T10041018  RH  091%=      5-min Rain = 0
KGHS 101115Z 31011KT M00/M02 A3032 RMK A01 T10021015  RH  092%=      5-min Rain = 0
KGHS 101120Z 32011KT M00/M02 A3032 RMK A01 T10021015  RH  091%=      5-min Rain = 0
KGHS 101125Z 32012KT M00/M01 A3032 RMK A01 T10011014  RH  092%=      5-min Rain = 0
KGHS 101130Z 31013KT M00/M02 A3032 RMK A01 T10021016  RH  091%=      5-min Rain = 0
KGHS 101135Z 31013KT M00/M02 A3032 RMK A01 T10031017  RH  091%=      5-min Rain = 0
KGHS 101140Z 31012G17KT M00/M02 A3032 RMK A01 T10031017  RH  091%=      5-min Rain = 0
KGHS 101145Z 31012KT M00/M02 A3032 RMK A01 T10041017  RH  092%=      5-min Rain = 0
KGHS 101150Z 31012KT M00/M02 A3033 RMK A01 T10041017  RH  092%=      5-min Rain = 0
KGHS 101155Z 31013KT M00/M01 A3033 RMK A01 T10021014  RH  093%=      5-min Rain = 0
KGHS 101200Z 31014G19KT 00/01 A3033 RMK A01 T00-00-12  RH  092%=      5-min Rain = 0
KGHS 101205Z 31014KT 00/M01 A3033 RMK A01 T00021011  RH  092%=      5-min Rain = 0
KGHS 101210Z 31013KT 00/M01 A3033 RMK A01 T00031010  RH  092%=      5-min Rain = 0
KGHS 101215Z 31012G18KT 00/M01 A3034 RMK A01 T00041010  RH  092%=      5-min Rain = 0
KGHS 101220Z 31012G17KT 01/M01 A3034 RMK A01 T00061007  RH  092%=      5-min Rain = 0
KGHS 101225Z 30011KT 01/M01 A3034 RMK A01 T00061009  RH  090%=      5-min Rain = 0
KGHS 101230Z 30010KT M00/M02 A3034 RMK A01 T10021019  RH  089%=      5-min Rain = 0
KGHS 101235Z 29010KT M01/M02 A3034 RMK A01 T10101023  RH  091%=      5-min Rain = 0
KGHS 101240Z 29010KT M01/M03 A3034 RMK A01 T10141025  RH  093%=      5-min Rain = 0
KGHS 101245Z 29010KT M01/M02 A3034 RMK A01 T10141023  RH  094%=      5-min Rain = 0
KGHS 101250Z 30011KT M01/M02 A3034 RMK A01 T10131022  RH  094%=      5-min Rain = 0
KGHS 101255Z 31011KT M01/M02 A3034 RMK A01 T10121021  RH  094%=      5-min Rain = 0
KGHS 101300Z 30010KT M01/M02 A3034 RMK A01 T10101019  RH  094%=      5-min Rain = 0
KGHS 101305Z 30009KT M01/M02 A3034 RMK A01 T10091020  RH  093%=      5-min Rain = 0
KGHS 101310Z 29009KT M01/M02 A3034 RMK A01 T10101022  RH  093%=      5-min Rain = 0
KGHS 101315Z 30010KT M01/M02 A3035 RMK A01 T10121023  RH  093%=      5-min Rain = 0
KGHS 101320Z 31011KT M01/M02 A3035 RMK A01 T10121022  RH  093%=      5-min Rain = 0
KGHS 101325Z 31010KT M01/M02 A3035 RMK A01 T10111023  RH  093%=      5-min Rain = 0
KGHS 101330Z 31010KT M01/M02 A3035 RMK A01 T10111022  RH  093%=      5-min Rain = 0
KGHS 101335Z 31010KT M01/M02 A3035 RMK A01 T10121024  RH  092%=      5-min Rain = 0
KGHS 101340Z 31011KT M01/M02 A3035 RMK A01 T10131024  RH  093%=      5-min Rain = 0
KGHS 101345Z 31011KT M01/M02 A3035 RMK A01 T10121024  RH  093%=      5-min Rain = 0
KGHS 101350Z 31010KT M01/M02 A3035 RMK A01 T10121024  RH  092%=      5-min Rain = 0
KGHS 101355Z 31010KT M01/M02 A3035 RMK A01 T10121024  RH  092%=      5-min Rain = 0
KGHS 101400Z 29009KT M01/M03 A3035 RMK A01 T10131026  RH  091%=      5-min Rain = 0
KGHS 101405Z 29010KT M02/M03 A3035 RMK A01 T10161028  RH  092%=      5-min Rain = 0
KGHS 101410Z 29010KT M02/M03 A3035 RMK A01 T10171028  RH  093%=      5-min Rain = 0
KGHS 101415Z 29009KT M02/M03 A3035 RMK A01 T10171028  RH  093%=      5-min Rain = 0
KGHS 101420Z 29009KT M02/M03 A3035 RMK A01 T10161027  RH  093%=      5-min Rain = 0
KGHS 101425Z 30009KT M02/M03 A3035 RMK A01 T10151027  RH  093%=      5-min Rain = 0
KGHS 101430Z 31009KT M01/M02 A3035 RMK A01 T10131024  RH  093%=      5-min Rain = 0
KGHS 101435Z 31010KT M01/M02 A3036 RMK A01 T10101023  RH  091%=      5-min Rain = 0
KGHS 101440Z 31010KT M01/M02 A3036 RMK A01 T10071022  RH  090%=      5-min Rain = 0
KGHS 101445Z 31010KT M00/M02 A3036 RMK A01 T10031020  RH  089%=      5-min Rain = 0
KGHS 101450Z 31009KT 00/M02 A3035 RMK A01 T00011018  RH  088%=      5-min Rain = 0
KGHS 101455Z 30009KT 00/M02 A3035 RMK A01 T00041017  RH  087%=      5-min Rain = 0
KGHS 101500Z 30008KT 01/M02 A3035 RMK A01 T00071015  RH  086%=      5-min Rain = 0
KGHS 101505Z 30008KT 01/M01 A3036 RMK A01 T00081014  RH  086%=      5-min Rain = 0
KGHS 101510Z 31009KT 01/M01 A3036 RMK A01 T00091012  RH  087%=      5-min Rain = 0
KGHS 101515Z 31008KT 01/M01 A3036 RMK A01 T00131010  RH  086%=      5-min Rain = 0
KGHS 101520Z 30007KT 02/M01 A3037 RMK A01 T00161008  RH  085%=      5-min Rain = 0
KGHS 101525Z 31007KT 02/M01 A3037 RMK A01 T00191007  RH  084%=      5-min Rain = 0
KGHS 101530Z 32007KT 02/M00 A3037 RMK A01 T00221004  RH  084%=      5-min Rain = 0
KGHS 101535Z 32007KT 02/M01 A3037 RMK A01 T00241005  RH  082%=      5-min Rain = 0
KGHS 101540Z 32007KT 03/M00 A3037 RMK A01 T00261004  RH  081%=      5-min Rain = 0
KGHS 101545Z 32008KT 03/M00 A3038 RMK A01 T00281003  RH  081%=      5-min Rain = 0
KGHS 101550Z 32009KT 03/M00 A3038 RMK A01 T00301003  RH  080%=      5-min Rain = 0
KGHS 101555Z 32010KT 03/M00 A3038 RMK A01 T00311003  RH  079%=      5-min Rain = 0
KGHS 101600Z 31009KT 03/M00 A3038 RMK A01 T00331002  RH  079%=      5-min Rain = 0
KGHS 101605Z 31010KT 04/M00 A3038 RMK A01 T00361001  RH  078%=      5-min Rain = 0
KGHS 101610Z 32010KT 04/00 A3038 RMK A01 T00380001  RH  078%=      5-min Rain = 0
KGHS 101615Z 32009KT 04/00 A3038 RMK A01 T00420002  RH  076%=      5-min Rain = 0
KGHS 101620Z 31009KT 05/00 A3038 RMK A01 T00450004  RH  076%=      5-min Rain = 0
KGHS 101625Z 31008KT 05/00 A3038 RMK A01 T00490004  RH  074%=      5-min Rain = 0
KGHS 101630Z 31006KT 05/01 A3038 RMK A01 T00530007  RH  073%=      5-min Rain = 0
KGHS 101635Z 31006KT 06/01 A3038 RMK A01 T00570007  RH  071%=      5-min Rain = 0
KGHS 101640Z 31006KT 06/01 A3038 RMK A01 T00590007  RH  070%=      5-min Rain = 0
KGHS 101645Z 30005KT 06/01 A3037 RMK A01 T00620008  RH  069%=      5-min Rain = 0
KGHS 101650Z 30005KT 07/01 A3037 RMK A01 T00650009  RH  068%=      5-min Rain = 0
KGHS 101655Z 30005KT 07/01 A3037 RMK A01 T00680007  RH  066%=      5-min Rain = 0
KGHS 101700Z 30005KT 07/01 A3037 RMK A01 T00700008  RH  066%=      5-min Rain = 0
KGHS 101705Z 31005KT 07/01 A3037 RMK A01 T00730010  RH  065%=      5-min Rain = 0
KGHS 101710Z 30006KT 08/01 A3036 RMK A01 T00760010  RH  064%=      5-min Rain = 0
KGHS 101715Z 29005KT 08/01 A3036 RMK A01 T00800010  RH  062%=      5-min Rain = 0
KGHS 101720Z 28005KT 08/01 A3036 RMK A01 T00820010  RH  062%=      5-min Rain = 0
KGHS 101725Z 28006KT 08/01 A3036 RMK A01 T00830009  RH  060%=      5-min Rain = 0
KGHS 101730Z 28006KT 09/01 A3036 RMK A01 T00870007  RH  058%=      5-min Rain = 0
KGHS 101735Z 28006KT 09/01 A3036 RMK A01 T00900008  RH  057%=      5-min Rain = 0
KGHS 101740Z 28007KT 09/01 A3035 RMK A01 T00910005  RH  056%=      5-min Rain = 0
KGHS 101745Z 28009KT 09/00 A3035 RMK A01 T00920001  RH  053%=      5-min Rain = 0
KGHS 101750Z 29008KT 09/00 A3035 RMK A01 T00920003  RH  054%=      5-min Rain = 0
KGHS 101755Z 28007KT 10/01 A3035 RMK A01 T00960007  RH  054%=      5-min Rain = 0
KGHS 101800Z 27007KT 10/01 A3034 RMK A01 T00980010  RH  055%=      5-min Rain = 0
KGHS 101805Z 26009KT 10/01 A3034 RMK A01 T00970007  RH  054%=      5-min Rain = 0
KGHS 101810Z 27010KT 10/00 A3034 RMK A01 T00970004  RH  053%=      5-min Rain = 0
KGHS 101815Z 27009KT 10/00 A3034 RMK A01 T00970003  RH  053%=      5-min Rain = 0
KGHS 101820Z 27010KT 10/01 A3033 RMK A01 T01000005  RH  052%=      5-min Rain = 0
KGHS 101825Z 28008KT 10/01 A3033 RMK A01 T01010007  RH  053%=      5-min Rain = 0
KGHS 101830Z 27009KT 10/00 A3033 RMK A01 T01020004  RH  051%=      5-min Rain = 0
KGHS 101835Z 27007KT 10/01 A3033 RMK A01 T01040009  RH  052%=      5-min Rain = 0
KGHS 101840Z 27007KT 11/01 A3032 RMK A01 T01070009  RH  052%=      5-min Rain = 0
KGHS 101845Z 27006KT 11/01 A3032 RMK A01 T01090012  RH  052%=      5-min Rain = 0
KGHS 101850Z 28005KT 11/01 A3032 RMK A01 T01130011  RH  050%=      5-min Rain = 0
KGHS 101855Z 28007KT 12/01 A3032 RMK A01 T01150010  RH  049%=      5-min Rain = 0
KGHS 101900Z 29007KT 11/01 A3032 RMK A01 T01140007  RH  048%=      5-min Rain = 0
KGHS 101905Z 29006KT 12/01 A3032 RMK A01 T01150006  RH  048%=      5-min Rain = 0
KGHS 101910Z 29006KT 11/01 A3032 RMK A01 T01140006  RH  048%=      5-min Rain = 0
KGHS 101915Z 29006KT 12/01 A3031 RMK A01 T01160008  RH  048%=      5-min Rain = 0
KGHS 101920Z 29004KT 12/01 A3031 RMK A01 T01190012  RH  049%=      5-min Rain = 0
KGHS 101925Z 27004KT 13/02 A3031 RMK A01 T01260017  RH  048%=      5-min Rain = 0
KGHS 101930Z 26004KT 12/02 A3031 RMK A01 T01240015  RH  048%=      5-min Rain = 0
KGHS 101935Z 27005KT 12/01 A3031 RMK A01 T01240013  RH  047%=      5-min Rain = 0
KGHS 101940Z 27006KT 13/01 A303 RMK A01 T01250014  RH  047%=      5-min Rain = 0
KGHS 101945Z 27005KT 13/01 A303 RMK A01 T01250014  RH  047%=      5-min Rain = 0
KGHS 101950Z 25007KT 13/02 A303 RMK A01 T01270015  RH  047%=      5-min Rain = 0
KGHS 101955Z 26005KT 13/01 A303 RMK A01 T01280013  RH  046%=      5-min Rain = 0
KGHS 102000Z 25007KT 13/01 A303 RMK A01 T01280012  RH  046%=      5-min Rain = 0
KGHS 102005Z 25006G11KT 13/01 A3029 RMK A01 T01310011  RH  045%=      5-min Rain = 0
KGHS 102010Z 28006KT 13/01 A3029 RMK A01 T01310006  RH  043%=      5-min Rain = 0
KGHS 102015Z 28005KT 13/01 A3029 RMK A01 T01300007  RH  043%=      5-min Rain = 0
KGHS 102020Z 30006KT 13/01 A3029 RMK A01 T01310007  RH  043%=      5-min Rain = 0
KGHS 102025Z 26005G10KT 13/01 A3029 RMK A01 T01320006  RH  043%=      5-min Rain = 0
KGHS 102030Z 28006KT 13/00 A3029 RMK A01 T01290002  RH  042%=      5-min Rain = 0
KGHS 102035Z 28003KT 13/00 A3029 RMK A01 T01300004  RH  043%=      5-min Rain = 0
KGHS 102040Z 24004G9KT 13/01 A3028 RMK A01 T01330007  RH  043%=      5-min Rain = 0
KGHS 102045Z 25005KT 14/00 A3028 RMK A01 T01350002  RH  040%=      5-min Rain = 0
KGHS 102050Z 24006KT 14/00 A3028 RMK A01 T01360004  RH  041%=      5-min Rain = 0
KGHS 102055Z 25005KT 14/00 A3028 RMK A01 T01360004  RH  041%=      5-min Rain = 0
KGHS 102100Z 23004KT 14/00 A3028 RMK A01 T01360001  RH  040%=      5-min Rain = 0
KGHS 102105Z 23004KT 14/00 A3028 RMK A01 T01370004  RH  041%=      5-min Rain = 0
KGHS 102110Z 25005KT 14/00 A3028 RMK A01 T01380002  RH  040%=      5-min Rain = 0
KGHS 102115Z 24004KT 14/00 A3027 RMK A01 T01360002  RH  040%=      5-min Rain = 0
KGHS 102120Z 24005KT 14/01 A3027 RMK A01 T01370007  RH  042%=      5-min Rain = 0
KGHS 102125Z 21005KT 14/01 A3027 RMK A01 T01380009  RH  042%=      5-min Rain = 0
KGHS 102130Z 24004KT 14/01 A3027 RMK A01 T01390008  RH  041%=      5-min Rain = 0
KGHS 102135Z 22004KT 14/01 A3027 RMK A01 T01380007  RH  041%=      5-min Rain = 0
KGHS 102140Z 21005KT 14/01 A3027 RMK A01 T01380011  RH  042%=      5-min Rain = 0
KGHS 102145Z 25004KT 14/01 A3027 RMK A01 T01390008  RH  041%=      5-min Rain = 0
KGHS 102150Z 23004KT 14/01 A3027 RMK A01 T01360006  RH  041%=      5-min Rain = 0
KGHS 102155Z 20005KT 14/01 A3027 RMK A01 T01370009  RH  042%=      5-min Rain = 0
KGHS 102200Z 23005KT 13/01 A3027 RMK A01 T01340007  RH  042%=      5-min Rain = 0
KGHS 102205Z 23005KT 13/00 A3027 RMK A01 T01330002  RH  041%=      5-min Rain = 0
KGHS 102210Z 24005KT 13/01 A3027 RMK A01 T01320005  RH  042%=      5-min Rain = 0
KGHS 102215Z 25005KT 13/01 A3027 RMK A01 T01340007  RH  043%=      5-min Rain = 0
KGHS 102220Z 23006KT 13/01 A3027 RMK A01 T01330006  RH  042%=      5-min Rain = 0
KGHS 102225Z 21005KT 13/01 A3027 RMK A01 T01310008  RH  044%=      5-min Rain = 0
KGHS 102230Z 20004KT 13/01 A3027 RMK A01 T01310008  RH  044%=      5-min Rain = 0
KGHS 102235Z 19004KT 13/01 A3028 RMK A01 T01310008  RH  044%=      5-min Rain = 0
KGHS 102240Z 20004KT 13/01 A3028 RMK A01 T01310010  RH  044%=      5-min Rain = 0
KGHS 102245Z 21003KT 13/01 A3028 RMK A01 T01280014  RH  046%=      5-min Rain = 0
KGHS 102250Z 19003KT 13/01 A3028 RMK A01 T01270013  RH  046%=      5-min Rain = 0
KGHS 102255Z 19003KT 13/01 A3028 RMK A01 T01250014  RH  047%=      5-min Rain = 0
KGHS 102300Z 19003KT 12/02 A3028 RMK A01 T01240016  RH  048%=      5-min Rain = 0
KGHS 102305Z 20003KT 12/01 A3028 RMK A01 T01230013  RH  048%=      5-min Rain = 0
KGHS 102310Z 22002KT 13/01 A3028 RMK A01 T01250013  RH  047%=      5-min Rain = 0
KGHS 102315Z 20002KT 13/01 A3028 RMK A01 T01250011  RH  046%=      5-min Rain = 0
KGHS 102320Z 17001KT 12/01 A3028 RMK A01 T01230009  RH  046%=      5-min Rain = 0
KGHS 102325Z 14001KT 12/01 A3028 RMK A01 T01210011  RH  047%=      5-min Rain = 0
KGHS 102330Z 13002KT 12/01 A3028 RMK A01 T01200010  RH  048%=      5-min Rain = 0
KGHS 102335Z 14002KT 12/01 A3028 RMK A01 T01180010  RH  048%=      5-min Rain = 0
KGHS 102340Z 14002KT 12/01 A3028 RMK A01 T01170007  RH  047%=      5-min Rain = 0
KGHS 102345Z 14002KT 12/01 A3028 RMK A01 T01160006  RH  047%=      5-min Rain = 0
KGHS 102350Z 15002KT 12/01 A3028 RMK A01 T01150005  RH  047%=      5-min Rain = 0
KGHS 102355Z 15002KT 11/01 A3028 RMK A01 T01130005  RH  048%=      5-min Rain = 0
KGHS 110000Z 15003KT 11/01 A3028 RMK A01 T01120006  RH  049%=      5-min Rain = 0
KGHS 110005Z 15003KT 11/01 A3029 RMK A01 T01100009  RH  050%=      5-min Rain = 0
KGHS 110010Z 16004KT 11/01 A3029 RMK A01 T01080011  RH  052%=      5-min Rain = 0
KGHS 110015Z 16004KT 11/01 A3029 RMK A01 T01070011  RH  052%=      5-min Rain = 0
KGHS 110020Z 15004KT 11/01 A3029 RMK A01 T01050012  RH  053%=      5-min Rain = 0
KGHS 110025Z 14004KT 10/01 A3029 RMK A01 T01030011  RH  054%=      5-min Rain = 0
KGHS 110030Z 13005KT 10/01 A3029 RMK A01 T01020011  RH  054%=      5-min Rain = 0
KGHS 110035Z 11004KT 10/01 A3028 RMK A01 T01010011  RH  055%=      5-min Rain = 0
KGHS 110040Z 12005KT 10/01 A3028 RMK A01 T00980011  RH  055%=      5-min Rain = 0
KGHS 110045Z 13005KT 10/01 A3028 RMK A01 T00980010  RH  055%=      5-min Rain = 0
KGHS 110050Z 12004KT 10/01 A3028 RMK A01 T00980009  RH  055%=      5-min Rain = 0
KGHS 110055Z 12005KT 10/01 A3029 RMK A01 T00970009  RH  055%=      5-min Rain = 0
KGHS 110100Z 12005KT 10/01 A3028 RMK A01 T00970008  RH  055%=      5-min Rain = 0
KGHS 110105Z 12005KT 10/01 A3028 RMK A01 T00950008  RH  055%=      5-min Rain = 0
KGHS 110110Z 12004KT 10/01 A3029 RMK A01 T00950007  RH  055%=      5-min Rain = 0
KGHS 110115Z 11004KT 10/01 A3029 RMK A01 T00950006  RH  055%=      5-min Rain = 0
KGHS 110120Z 11005KT 09/01 A3029 RMK A01 T00930007  RH  056%=      5-min Rain = 0
KGHS 110125Z 11005KT 09/01 A3029 RMK A01 T00900007  RH  057%=      5-min Rain = 0
KGHS 110130Z 12005KT 09/01 A3029 RMK A01 T00890007  RH  057%=      5-min Rain = 0
KGHS 110135Z 13005KT 09/01 A3029 RMK A01 T00890008  RH  057%=      5-min Rain = 0
KGHS 110140Z 13005KT 09/01 A3029 RMK A01 T00890008  RH  058%=      5-min Rain = 0
KGHS 110145Z 12004KT 09/01 A3029 RMK A01 T00880009  RH  058%=      5-min Rain = 0
KGHS 110150Z 13004KT 09/01 A3029 RMK A01 T00870010  RH  059%=      5-min Rain = 0
KGHS 110155Z 14004KT 09/01 A3029 RMK A01 T00870011  RH  060%=      5-min Rain = 0
KGHS 110200Z 16004KT 09/01 A3029 RMK A01 T00860012  RH  060%=      5-min Rain = 0
KGHS 110205Z 16004KT 09/01 A3029 RMK A01 T00860014  RH  061%=      5-min Rain = 0
KGHS 110210Z 17005KT 09/02 A3029 RMK A01 T00850015  RH  062%=      5-min Rain = 0
KGHS 110215Z 17006KT 08/02 A3029 RMK A01 T00840016  RH  063%=      5-min Rain = 0
KGHS 110220Z 17005KT 08/02 A3029 RMK A01 T00810016  RH  065%=      5-min Rain = 0
KGHS 110225Z 18005G10KT 08/02 A3029 RMK A01 T00790016  RH  066%=      5-min Rain = 0
KGHS 110230Z 18009KT 08/02 A3029 RMK A01 T00780016  RH  066%=      5-min Rain = 0
KGHS 110235Z 18010KT 08/02 A3029 RMK A01 T00790016  RH  066%=      5-min Rain = 0
KGHS 110240Z 18011KT 08/02 A3029 RMK A01 T00800017  RH  065%=      5-min Rain = 0
KGHS 110245Z 19009KT 08/02 A3029 RMK A01 T00790019  RH  067%=      5-min Rain = 0
KGHS 110250Z 19009KT 08/02 A303 RMK A01 T00800022  RH  068%=      5-min Rain = 0
KGHS 110255Z 20008KT 08/03 A303 RMK A01 T00800026  RH  070%=      5-min Rain = 0
KGHS 110300Z 19009G14KT 08/03 A3029 RMK A01 T00810029  RH  071%=      5-min Rain = 0
KGHS 110305Z 20008KT 08/03 A3029 RMK A01 T00820030  RH  071%=      5-min Rain = 0
KGHS 110310Z 19010KT 08/03 A3029 RMK A01 T00800031  RH  073%=      5-min Rain = 0
KGHS 110315Z 20009KT 08/03 A3029 RMK A01 T00790032  RH  073%=      5-min Rain = 0
KGHS 110320Z 20007KT 08/03 A3029 RMK A01 T00760032  RH  075%=      5-min Rain = 0
KGHS 110325Z 21007KT 07/03 A3029 RMK A01 T00730032  RH  077%=      5-min Rain = 0
KGHS 110330Z 21006KT 07/03 A3029 RMK A01 T00710032  RH  078%=      5-min Rain = 0
KGHS 110335Z 22007KT 07/03 A3029 RMK A01 T00690031  RH  078%=      5-min Rain = 0
KGHS 110340Z 23007KT 07/03 A3029 RMK A01 T00660030  RH  079%=      5-min Rain = 0
KGHS 110345Z 23007KT 06/03 A3029 RMK A01 T00640030  RH  080%=      5-min Rain = 0
KGHS 110350Z 22005KT 06/03 A3029 RMK A01 T00620030  RH  081%=      5-min Rain = 0
KGHS 110355Z 23006KT 06/03 A3029 RMK A01 T00620030  RH  081%=      5-min Rain = 0
KGHS 110400Z 22007KT 06/03 A3029 RMK A01 T00620029  RH  081%=      5-min Rain = 0
KGHS 110405Z 23007KT 06/03 A3029 RMK A01 T00620029  RH  081%=      5-min Rain = 0
KGHS 110410Z 22007KT 06/03 A3029 RMK A01 T00610029  RH  081%=      5-min Rain = 0
KGHS 110415Z 21006KT 06/03 A3029 RMK A01 T00610029  RH  081%=      5-min Rain = 0
KGHS 110420Z 22005KT 06/03 A3029 RMK A01 T00610029  RH  081%=      5-min Rain = 0
KGHS 110425Z 23005KT 06/03 A3029 RMK A01 T00610029  RH  081%=      5-min Rain = 0
KGHS 110430Z 24005KT 06/03 A3029 RMK A01 T00600028  RH  081%=      5-min Rain = 0
KGHS 110435Z 25005KT 06/03 A3029 RMK A01 T00570027  RH  082%=      5-min Rain = 0
KGHS 110440Z 25005KT 06/03 A303 RMK A01 T00550026  RH  083%=      5-min Rain = 0
KGHS 110445Z 25005KT 05/03 A303 RMK A01 T00520025  RH  084%=      5-min Rain = 0
KGHS 110450Z 26005KT 05/03 A303 RMK A01 T00520026  RH  085%=      5-min Rain = 0
KGHS 110455Z 25006KT 05/03 A303 RMK A01 T00510025  RH  085%=      5-min Rain = 0
KGHS 110500Z 25006KT 05/03 A303 RMK A01 T00490025  RH  085%=      5-min Rain = 0
KGHS 110505Z 25006KT 05/02 A303 RMK A01 T00470024  RH  086%=      5-min Rain = 0
KGHS 110510Z 26006KT 05/02 A303 RMK A01 T00450023  RH  087%=      5-min Rain = 0
KGHS 110515Z 26006KT 04/02 A303 RMK A01 T00420022  RH  088%=      5-min Rain = 0
KGHS 110520Z 26007KT 04/02 A303 RMK A01 T00410022  RH  089%=      5-min Rain = 0
KGHS 110525Z 26008KT 04/02 A303 RMK A01 T00400022  RH  090%=      5-min Rain = 0
KGHS 110530Z 26009KT 04/02 A303 RMK A01 T00400022  RH  090%=      5-min Rain = 0
KGHS 110535Z 25009KT 04/02 A303 RMK A01 T00390021  RH  089%=      5-min Rain = 0
KGHS 110540Z 25009KT 04/02 A303 RMK A01 T00390021  RH  090%=      5-min Rain = 0
KGHS 110545Z 25009KT 04/02 A303 RMK A01 T00380021  RH  090%=      5-min Rain = 0
KGHS 110550Z 25009KT 04/02 A3029 RMK A01 T00390021  RH  090%=      5-min Rain = 0
KGHS 110555Z 25009KT 04/02 A3029 RMK A01 T00390021  RH  090%=      5-min Rain = 0

Page generated in 0.0092 seconds.